Latest Weather Observations for Kanagulk

IDV60801

Issued at 9:52 pm EST Monday 18 June 2018 (issued every 10 minutes, with the page automatically refreshed every 10 minutes)

About weather observations | Map of weather stations | Latest weather observations for VIC | Other Formats
Station Details ID: 079097 Name: KANAGULK Lat: -37.12 Lon: 141.80 Height: 188.8 m
Data from the previous 72 hours. | See also: Recent months at Kanagulk
Date/Time
EST
Temp
°C
App
Temp
°C
Dew
Point
°C
Rel
Hum
%
Delta-T
°C
Wind Press
QNH
hPa
Press
MSL
hPa
Rain since
9am
mm
Dir  Spd
km/h
Gust
km/h
Spd
kts
Gust
kts
18/09:30pm 4.6 1.5 3.4 92 0.5 SSE 9 13 5 7 1028.0 1028.3 0.0
18/09:00pm 5.6 3.0 4.1 90 0.6 S 7 9 4 5 1028.5 1028.9 0.0
18/08:30pm 7.1 4.6 4.6 84 1.1 SSW 7 9 4 5 1028.8 1029.2 0.0
18/08:00pm 7.0 4.0 4.3 83 1.2 S 9 11 5 6 1028.8 1029.2 0.0
18/07:30pm 8.4 5.7 5.5 82 1.3 S 9 11 5 6 1028.7 1029.1 0.0
18/07:00pm 8.8 6.3 6.4 85 1.1 S 9 15 5 8 1028.5 1028.9 0.0
18/06:30pm 8.9 6.1 6.9 87 0.9 SSW 11 15 6 8 1028.5 1028.9 0.0
18/06:00pm 8.5 6.5 7.1 91 0.7 S 7 9 4 5 1028.4 1028.8 0.0
18/05:30pm 8.7 6.3 7.2 90 0.7 SSE 9 13 5 7 1028.1 1028.5 0.0
18/05:00pm 8.9 5.4 7.2 89 0.8 S 15 22 8 12 1028.2 1028.6 0.0
18/04:30pm 9.5 6.2 6.6 82 1.4 S 13 17 7 9 1028.1 1028.5 0.0
18/04:00pm 9.7 7.1 6.1 78 1.7 S 9 15 5 8 1028.1 1028.5 0.0
18/03:30pm 9.7 4.9 5.5 75 1.9 S 20 28 11 15 1028.0 1028.3 0.0
18/03:00pm 10.1 5.3 5.5 73 2.1 S 20 26 11 14 1027.9 1028.2 0.0
18/02:30pm 10.4 6.2 5.8 73 2.1 SSE 17 24 9 13 1027.8 1028.1 0.0
18/02:00pm 10.4 6.6 6.0 74 2.0 S 15 28 8 15 1027.9 1028.2 0.0
18/01:30pm 9.7 5.7 6.6 81 1.5 S 17 26 9 14 1028.0 1028.3 0.0
18/01:00pm 10.0 4.9 6.2 77 1.8 S 22 30 12 16 1028.2 1028.6 0.0
18/12:30pm 10.2 5.4 5.8 74 2.0 S 20 30 11 16 1028.3 1028.7 0.0
18/12:00pm 10.3 5.4 6.8 79 1.7 SSE 22 32 12 17 1028.8 1029.2 0.0
18/11:30am 10.0 5.1 6.9 81 1.5 SSE 22 35 12 19 1028.9 1029.3 0.0
18/11:00am 9.3 4.4 6.7 84 1.2 SSE 22 32 12 17 1028.9 1029.3 0.0
18/10:30am 8.9 5.1 7.4 90 0.7 S 17 24 9 13 1028.8 1029.2 0.0
18/10:00am 7.9 4.9 7.8 99 0.0 SSW 13 17 7 9 1028.8 1029.2 0.0
18/09:30am 7.6 4.9 7.5 99 0.0 SSW 11 17 6 9 1028.7 1029.1 0.0
18/09:00am 6.4 3.8 6.3 99 0.0 SSW 9 13 5 7 1028.7 1029.1 1.0
18/08:30am 5.5 2.8 5.5 100 0.0 SW 9 13 5 7 1028.5 1028.9 1.0
18/08:00am 5.1 2.3 5.0 99 0.0 SSW 9 15 5 8 1028.2 1028.6 1.0
18/07:30am 4.9 2.0 4.9 100 0.0 SSW 9 15 5 8 1027.9 1028.2 1.0
18/07:00am 4.6 1.7 4.6 100 0.0 SSW 9 15 5 8 1027.6 1027.9 1.0
18/06:30am 4.5 1.6 4.4 99 0.0 SW 9 13 5 7 1027.5 1027.8 1.0
18/06:00am 4.7 1.8 4.6 99 0.0 SW 9 13 5 7 1027.2 1027.5 1.0
18/05:30am 4.8 1.9 4.8 100 0.0 SSW 9 15 5 8 1027.0 1027.3 1.0
18/05:00am 4.7 1.4 4.7 100 0.0 SSW 11 17 6 9 1026.8 1027.1 1.0
18/04:30am 4.3 1.0 4.3 100 0.0 SSW 11 17 6 9 1026.7 1027.0 1.0
18/04:00am 4.1 0.7 4.1 100 0.0 SSW 11 15 6 8 1026.8 1027.1 1.0
18/03:30am 4.1 0.7 4.1 100 0.0 SW 11 15 6 8 1026.6 1026.9 1.0
18/03:00am 3.8 0.0 3.8 100 0.0 SW 13 17 7 9 1026.6 1026.9 1.0
18/02:30am 2.4 -0.6 2.3 99 0.0 SW 7 11 4 6 1026.6 1026.9 0.8
18/02:00am 2.5 -0.4 2.4 99 0.0 SW 7 11 4 6 1026.4 1026.7 0.8
18/01:30am 2.9 0.2 2.8 99 0.0 SW 6 9 3 5 1026.5 1026.8 0.8
18/01:00am 2.9 0.0 2.8 99 0.0 WSW 7 9 4 5 1026.5 1026.8 0.8
18/12:30am 3.4 0.6 3.3 99 0.0 WSW 7 11 4 6 1026.5 1026.8 0.8
18/12:00am 4.4 2.8 4.3 99 0.0 SW 2 7 1 4 1026.5 1026.8 0.8
 
Date/Time
EST
Temp
°C
App
Temp
°C
Dew
Point
°C
Rel
Hum
%
Delta-T
°C
Wind Press
QNH
hPa
Press
MSL
hPa
Rain since
9am
mm
Dir  Spd
km/h
Gust
km/h
Spd
kts
Gust
kts
17/11:30pm 5.0 2.7 4.9 99 0.0 WSW 6 11 3 6 1026.7 1027.0 0.8
17/11:00pm 4.9 2.4 4.8 99 0.0 SW 7 13 4 7 1026.7 1027.0 0.8
17/10:30pm 5.8 3.1 5.5 98 0.1 SW 9 15 5 8 1026.2 1026.5 0.8
17/10:00pm 6.3 3.6 5.7 96 0.3 SSW 9 13 5 7 1026.2 1026.5 0.8
17/09:30pm 7.0 4.4 6.1 94 0.4 SSW 9 15 5 8 1026.2 1026.5 0.8
17/09:00pm 7.2 4.7 6.5 95 0.3 SW 9 15 5 8 1026.0 1026.3 0.8
17/08:30pm 7.5 4.6 6.4 93 0.5 SSW 11 17 6 9 1025.7 1026.0 0.8
17/08:00pm 7.4 4.0 6.0 91 0.6 SSW 13 20 7 11 1025.3 1025.6 0.8
17/07:30pm 6.8 4.1 5.4 91 0.6 SW 9 15 5 8 1025.0 1025.3 0.8
17/07:00pm 7.6 5.1 6.4 92 0.6 SSW 9 15 5 8 1024.5 1024.8 0.8
17/06:30pm 7.9 4.2 6.5 91 0.6 SSW 15 24 8 13 1023.9 1024.3 0.8
17/06:00pm 8.2 3.5 6.2 87 0.9 SSW 20 30 11 16 1023.4 1023.7 0.8
17/05:30pm 8.1 2.8 6.7 91 0.7 S 24 37 13 20 1023.2 1023.5 0.8
17/05:00pm 9.0 4.5 7.1 88 0.9 SSW 20 32 11 17 1022.9 1023.2 0.8
17/04:30pm 9.3 5.0 7.1 86 1.0 SSW 19 30 10 16 1022.7 1023.0 0.8
17/04:00pm 9.5 4.4 7.6 88 0.9 SSW 24 37 13 20 1022.4 1022.7 0.8
17/03:30pm 9.4 4.4 8.0 91 0.7 SSW 24 39 13 21 1022.1 1022.4 0.8
17/03:00pm 8.5 3.6 8.4 99 0.0 SSW 24 39 13 21 1021.7 1022.0 0.8
17/02:30pm 8.9 2.8 8.3 96 0.3 S 30 44 16 24 1021.5 1021.8 0.6
17/02:00pm 10.5 6.1 8.9 90 0.8 SSW 22 37 12 20 1021.3 1021.6 0.4
17/01:30pm 9.7 5.3 8.8 94 0.4 SSW 22 37 12 20 1021.2 1021.5 0.2
17/01:00pm 10.9 6.1 8.7 86 1.1 SSW 24 35 13 19 1021.2 1021.5 0.2
17/12:30pm 10.1 5.5 9.6 97 0.3 SSW 24 39 13 21 1021.5 1021.8 0.2
17/12:00pm 9.5 5.8 9.4 99 0.0 SW 19 30 10 16 1021.6 1021.9 0.2
17/11:30am 10.1 5.6 8.4 89 0.8 SSW 22 39 12 21 1021.5 1021.8 0.0
17/11:00am 9.8 4.9 8.4 91 0.7 SSW 24 37 13 20 1021.5 1021.8 0.0
17/10:30am 9.4 4.8 8.0 91 0.7 SSW 22 33 12 18 1021.3 1021.6 0.0
17/10:00am 8.7 4.8 8.6 99 0.0 SW 19 30 10 16 1021.2 1021.5 0.0
17/09:30am 8.3 4.3 8.2 99 0.0 SW 19 28 10 15 1020.7 1021.0 0.0
17/09:00am 7.7 3.9 7.7 100 0.0 SW 17 32 9 17 1020.5 1020.8 6.8
17/08:30am 7.4 3.9 7.4 100 0.0 SW 15 22 8 12 1020.2 1020.5 6.8
17/08:00am 6.9 3.3 6.9 100 0.0 SW 15 24 8 13 1019.7 1020.0 6.8
17/07:30am 7.0 3.1 7.0 100 0.0 SW 17 30 9 16 1019.2 1019.4 6.8
17/07:00am 7.0 3.1 7.0 100 0.0 SW 17 32 9 17 1018.8 1019.0 6.8
17/06:30am 6.9 3.0 6.9 100 0.0 SW 17 28 9 15 1018.3 1018.6 6.8
17/06:00am 7.3 3.8 7.3 100 0.0 SW 15 20 8 11 1018.2 1018.5 6.6
17/05:30am 7.2 3.3 7.2 100 0.0 SW 17 26 9 14 1017.8 1018.1 6.4
17/05:00am 7.2 3.3 7.2 100 0.0 SW 17 32 9 17 1017.7 1018.0 6.4
17/04:30am 7.2 3.7 7.2 100 0.0 SW 15 26 8 14 1017.6 1017.9 6.2
17/04:00am 7.2 4.1 7.2 100 0.0 WSW 13 19 7 10 1017.5 1017.8 6.0
17/03:30am 7.3 3.8 7.3 100 0.0 SW 15 24 8 13 1017.6 1017.9 5.8
17/03:00am 7.1 4.3 7.1 100 0.0 SW 11 15 6 8 1017.6 1017.9 5.4
17/02:30am 6.9 4.1 6.9 100 0.0 WSW 11 20 6 11 1017.5 1017.8 4.8
17/02:00am 6.5 4.4 6.5 100 0.0 WSW 7 13 4 7 1017.5 1017.8 4.6
17/01:30am 6.1 3.9 6.1 100 0.0 W 7 11 4 6 1017.4 1017.7 4.2
17/01:00am 5.8 3.5 5.8 100 0.0 W 7 13 4 7 1017.4 1017.7 3.4
17/12:30am 5.7 2.3 5.7 100 0.0 WSW 13 24 7 13 1017.6 1017.9 2.0
17/12:00am 5.1 2.7 5.1 100 0.0 W 7 15 4 8 1017.3 1017.6 1.0
 
Date/Time
EST
Temp
°C
App
Temp
°C
Dew
Point
°C
Rel
Hum
%
Delta-T
°C
Wind Press
QNH
hPa
Press
MSL
hPa
Rain since
9am
mm
Dir  Spd
km/h
Gust
km/h
Spd
kts
Gust
kts
16/11:30pm 4.5 1.6 4.5 100 0.0 W 9 17 5 9 1017.3 1017.6 0.8
16/11:00pm 4.4 1.5 4.4 100 0.0 W 9 15 5 8 1017.0 1017.3 0.8
16/10:30pm 4.4 1.5 4.4 100 0.0 W 9 15 5 8 1016.9 1017.2 0.8
16/10:00pm 4.2 1.2 4.2 100 0.0 W 9 15 5 8 1016.8 1017.1 0.8
16/09:30pm 4.4 1.5 4.4 100 0.0 WSW 9 13 5 7 1016.9 1017.2 0.8
16/09:00pm 3.7 1.0 3.7 100 0.0 W 7 13 4 7 1016.3 1016.6 0.8
16/08:30pm 4.0 1.4 4.0 100 0.0 W 7 11 4 6 1016.1 1016.4 0.8
16/08:00pm 4.0 1.3 3.9 99 0.0 WSW 7 13 4 7 1016.4 1016.7 0.8
16/07:30pm 4.1 1.5 4.0 99 0.0 WSW 7 11 4 6 1016.4 1016.7 0.8
16/07:00pm 4.7 2.2 4.6 99 0.0 WSW 7 13 4 7 1016.0 1016.3 0.8
16/06:30pm 5.4 2.2 5.3 99 0.0 SW 11 15 6 8 1015.6 1015.9 0.6
16/06:00pm 5.8 2.7 5.7 99 0.0 SW 11 19 6 10 1015.2 1015.5 0.6
16/05:30pm 6.0 3.0 5.9 99 0.0 SW 11 17 6 9 1015.2 1015.5 0.6
16/05:00pm 6.0 3.0 5.9 99 0.0 WSW 11 19 6 10 1015.0 1015.3 0.4
16/04:30pm 6.3 3.0 6.2 99 0.0 WSW 13 24 7 13 1014.8 1015.1 0.4
16/04:00pm 6.9 4.0 6.5 97 0.2 WSW 11 20 6 11 1014.5 1014.7 0.2
16/03:30pm 7.4 3.7 6.2 92 0.6 WSW 15 26 8 14 1014.2 1014.4 0.2
16/03:00pm 8.8 6.0 6.8 87 0.9 WSW 11 19 6 10 1013.9 1014.1 0.2
16/02:30pm 6.5 2.2 5.1 91 0.6 WSW 17 32 9 17 1014.0 1014.2 0.0
16/02:00pm 9.2 4.4 5.8 79 1.6 WSW 20 33 11 18 1014.1 1014.3 0.0
16/01:30pm 10.3 6.6 4.7 68 2.5 W 13 26 7 14 1013.9 1014.1 0.0
16/01:00pm 10.1 6.0 4.5 68 2.5 W 15 28 8 15 1014.1 1014.3 0.0
16/12:30pm 10.2 7.0 5.0 70 2.4 W 11 20 6 11 1014.5 1014.7 0.0
16/12:00pm 10.1 6.7 5.7 74 2.0 W 13 20 7 11 1014.9 1015.2 0.0
16/11:30am 9.6 6.8 7.0 84 1.2 WNW 11 17 6 9 1015.4 1015.7 0.0
16/11:00am 9.2 7.0 7.8 91 0.7 W 9 17 5 9 1015.6 1015.9 0.0
16/10:30am 8.0 5.0 7.9 99 0.0 W 13 26 7 14 1015.7 1016.0 0.0
16/10:00am 6.8 3.6 6.8 100 0.0 WNW 13 20 7 11 1015.7 1016.0 0.0
16/09:30am 6.2 3.2 6.2 100 0.0 WNW 11 17 6 9 1015.5 1015.8 0.0
16/09:00am 5.5 2.4 5.5 100 0.0 WNW 11 20 6 11 1015.3 1015.6 1.4
16/08:30am 5.4 3.0 5.4 100 0.0 WNW 7 13 4 7 1015.3 1015.6 1.4
16/08:00am 5.2 2.4 5.2 100 0.0 WNW 9 15 5 8 1015.3 1015.6 1.4
16/07:30am 4.9 2.4 4.9 100 0.0 WNW 7 13 4 7 1015.0 1015.3 1.4
16/07:00am 5.3 3.1 5.3 100 0.0 WNW 6 9 3 5 1015.0 1015.3 1.4
16/06:30am 5.4 4.3 5.3 99 0.0 CALM 0 0 0 0 1014.7 1014.9 1.4
16/06:00am 5.3 4.2 5.2 99 0.0 CALM 0 0 0 0 1014.7 1014.9 1.2
16/05:30am 5.5 3.3 5.4 99 0.0 WSW 6 9 3 5 1014.6 1014.8 0.8
16/05:00am 5.2 2.8 5.1 99 0.0 NW 7 11 4 6 1014.4 1014.6 0.4
16/04:30am 5.1 2.6 5.0 99 0.0 NW 7 11 4 6 1014.2 1014.4 0.4
16/04:00am 5.5 3.1 5.1 97 0.2 WNW 7 11 4 6 1014.2 1014.4 0.4
16/03:30am 6.0 3.2 5.1 94 0.4 WNW 9 17 5 9 1014.6 1014.8 0.4
16/03:00am 6.3 3.2 5.4 94 0.4 W 11 20 6 11 1014.7 1014.9 0.4
16/02:30am 6.0 3.4 5.9 99 0.0 W 9 17 5 9 1014.7 1014.9 0.4
16/02:00am 5.4 2.6 5.3 99 0.0 NW 9 13 5 7 1014.7 1014.9 0.4
16/01:30am 5.2 2.4 5.1 99 0.0 NW 9 15 5 8 1014.7 1014.9 0.4
16/01:00am 5.0 2.5 4.9 99 0.0 NW 7 11 4 6 1014.9 1015.2 0.4
16/12:30am 5.2 2.3 4.9 98 0.1 NW 9 13 5 7 1015.0 1015.3 0.4
16/12:00am 5.6 2.8 5.2 97 0.2 NW 9 11 5 6 1015.2 1015.5 0.4
 
Date/Time
EST
Temp
°C
App
Temp
°C
Dew
Point
°C
Rel
Hum
%
Delta-T
°C
Wind Press
QNH
hPa
Press
MSL
hPa
Rain since
9am
mm
Dir  Spd
km/h
Gust
km/h
Spd
kts
Gust
kts
15/11:30pm 5.8 3.1 5.4 97 0.2 WNW 9 15 5 8 1015.2 1015.5 0.4
15/11:00pm 6.1 3.5 6.0 99 0.0 WNW 9 15 5 8 1015.2 1015.5 0.4
15/10:30pm 6.0 3.4 5.9 99 0.0 WNW 9 15 5 8 1015.2 1015.5 0.4
15/10:00pm 6.2 3.2 5.8 97 0.2 WNW 11 17 6 9 1015.3 1015.6 0.4

Other Formats:

Comma delimited format used in spreadsheet applications
http://www.bom.gov.au/fwo/IDV60801/IDV60801.95827.axf

JavaScript Object Notation format (JSON) in row-major order
http://www.bom.gov.au/fwo/IDV60801/IDV60801.95827.json